CW6864 Weather Reports


Display with metric or nautical units.
time (UTC)temp
F
wind
direction
speed
MPH
gust
MPH
rain 1hr
in
rain 24hr
in
rain mn
in
humidity
%
barometer
mb
20200810230311 90 315 16.0 33.0 0.00 0.00 0.00 69 1012.4
20200810225412 92 0.0 0.0 0.00 0.00 0.00 68 1011.1
20200810223311 93 0.0 1.0 0.00 0.00 0.00 66 1010.8
20200810222058 93 0.0 2.0 0.00 0.00 0.00 64 1010.9
20200810221030 94 315 1.0 2.0 0.00 0.00 0.00 63 1010.5
20200810214026 97 315 1.0 3.0 0.00 0.00 0.00 59 1011.1
20200810213017 97 270 4.0 8.0 0.00 0.00 0.00 56 1010.8
20200810212017 97 315 2.0 4.0 0.00 0.00 0.00 57 1011.0
20200810210958 97 315 3.0 10.0 0.00 0.00 0.00 56 1011.0
20200810205017 97 315 3.0 5.0 0.00 0.00 0.00 56 1011.0
20200810204016 97 0.0 2.0 0.00 0.00 0.00 60 1011.1
20200810203017 97 337 3.0 6.0 0.00 0.00 0.00 59 1011.3
20200810202017 98 292 4.0 9.0 0.00 0.00 0.00 56 1011.6
20200810201016 97 292 3.0 7.0 0.00 0.00 0.00 57 1011.9
20200810200017 97 315 3.0 7.0 0.00 0.00 0.00 58 1011.9
20200810195022 97 225 1.0 3.0 0.00 0.00 0.00 59 1012.1
20200810194016 96 270 2.0 3.0 0.00 0.00 0.00 61 1012.0
20200810193017 96 247 3.0 9.0 0.00 0.00 0.00 64 1012.1
20200810192016 96 270 2.0 6.0 0.00 0.00 0.00 61 1012.1
20200810191016 96 0.0 2.0 0.00 0.00 0.00 63 1012.2
20200810190016 96 247 2.0 4.0 0.00 0.00 0.00 61 1012.4
20200810185016 96 315 2.0 4.0 0.00 0.00 0.00 61 1012.6
20200810184016 96 225 4.0 7.0 0.00 0.00 0.00 62 1012.6
20200810183017 96 0.0 2.0 0.00 0.00 0.00 62 1012.8
20200810182016 96 292 1.0 2.0 0.00 0.00 0.00 62 1013.0
20200810181017 96 247 3.0 9.0 0.00 0.00 0.00 59 1012.8
20200810180016 95 315 1.0 3.0 0.00 0.00 0.00 63 1013.2
20200810175016 95 315 3.0 4.0 0.00 0.00 0.00 63 1013.1
20200810174016 95 225 3.0 5.0 0.00 0.00 0.00 62 1013.1
20200810173020 94 315 3.0 6.0 0.00 0.00 0.00 65 1013.2
20200810172017 94 270 4.0 13.0 0.00 0.00 0.00 63 1013.4
20200810171016 94 247 2.0 5.0 0.00 0.00 0.00 66 1013.4
20200810170016 94 225 2.0 4.0 0.00 0.00 0.00 66 1013.7
20200810165017 92 270 3.0 6.0 0.00 0.00 0.00 67 1013.8
20200810164016 92 315 3.0 5.0 0.00 0.00 0.00 68 1013.9
20200810163241 92 337 2.0 4.0 0.00 0.00 0.00 68 1014.1
20200810162538 92 315 3.0 5.0 0.00 0.00 0.00 69 1014.2
20200810161021 91 315 2.0 5.0 0.00 0.00 0.00 69 1014.3
20200810160144 91 315 2.0 5.0 0.00 0.00 0.00 70 1014.3
20200810153710 89 315 3.0 8.0 0.00 0.00 0.00 72 1014.5
20200810152016 89 292 2.0 4.0 0.00 0.00 0.00 73 1014.5
20200810151016 88 315 2.0 4.0 0.00 0.00 0.00 75 1014.4
20200810150344 88 315 3.0 6.0 0.00 0.00 0.00 75 1014.3
20200810145054 87 292 3.0 7.0 0.00 0.00 0.00 75 1014.2
20200810144021 87 292 1.0 3.0 0.00 0.00 0.00 75 1014.3
20200810143030 86 315 2.0 3.0 0.00 0.00 0.00 77 1014.3
20200810142043 86 315 3.0 10.0 0.00 0.00 0.00 77 1014.3
20200810141438 85 337 6.0 10.0 0.00 0.00 0.00 78 1014.4
20200810134232 84 292 2.0 5.0 0.00 0.00 0.00 81 1014.5
20200810125016 81 292 1.0 2.0 0.00 0.00 0.00 86 1014.3
20200810124017 80 292 1.0 5.0 0.00 0.00 0.00 88 1014.2
20200810121016 77 0.0 0.0 0.00 0.01 0.00 92 1014.3
20200810120016 77 0.0 1.0 0.00 0.01 0.00 92 1014.1
20200810115016 77 0.0 0.0 0.00 0.02 0.00 92 1014.1
20200810114016 77 0.0 1.0 0.00 0.02 0.00 92 1014.1
20200810113016 77 0.0 1.0 0.00 0.02 0.00 92 1014.1
20200810112016 77 225 1.0 3.0 0.00 0.02 0.00 93 1014.0
20200810111016 77 225 1.0 2.0 0.00 0.03 0.00 93 1013.8
20200810110016 77 225 1.0 2.0 0.00 0.04 0.00 93 1013.7
20200810105021 77 0.0 0.0 0.00 0.05 0.00 93 1013.8
20200810104016 77 0.0 1.0 0.00 0.06 0.00 93 1013.9
20200810103016 77 225 1.0 2.0 0.00 0.06 0.00 93 1013.9
20200810102115 77 225 1.0 2.0 0.00 0.07 0.00 93 1014.0
20200810100110 77 0.0 0.0 0.00 0.10 0.00 93 1013.9
20200810095025 77 0.0 1.0 0.00 0.10 0.00 93 1013.9
20200810094045 77 0.0 2.0 0.00 0.12 0.00 93 1013.7
20200810093650 77 225 2.0 3.0 0.00 0.13 0.00 94 1013.8
20200810091016 77 225 1.0 2.0 0.00 0.18 0.00 94 1014.2
20200810090132 77 0.0 1.0 0.00 0.20 0.00 95 1014.0
20200810085108 77 0.0 4.0 0.00 0.22 0.00 95 1014.2
20200810083723 76 0.0 1.0 0.00 0.24 0.00 96 1014.1
20200810082016 76 225 1.0 2.0 0.00 0.25 0.00 96 1014.1
20200810081016 76 225 1.0 3.0 0.00 0.25 0.00 96 1014.1
20200810080031 76 0.0 0.0 0.00 0.26 0.00 96 1014.2
20200810075043 76 0.0 0.0 0.00 0.27 0.00 96 1014.2
20200810074448 77 0.0 0.0 0.00 0.32 0.00 96 1014.3
20200810072016 77 0.0 0.0 0.00 0.60 0.00 96 1014.2